createdAt,value
2023-03-06T00:01:09.104Z,0.10
2023-03-06T00:03:39.715Z,0.10
2023-03-06T00:06:07.331Z,0.11
2023-03-06T00:08:35.362Z,0.08
2023-03-06T00:11:02.467Z,0.08
2023-03-06T00:13:31.197Z,0.07
2023-03-06T00:16:01.324Z,0.07
2023-03-06T00:18:30.589Z,0.07
2023-03-06T00:21:00.949Z,0.08
2023-03-06T00:23:28.060Z,0.09
2023-03-06T00:25:55.186Z,0.06
2023-03-06T00:28:24.631Z,0.05
2023-03-06T00:30:51.983Z,0.03
2023-03-06T00:33:19.165Z,0.05
2023-03-06T00:35:48.545Z,0.05
2023-03-06T00:38:15.826Z,0.07
2023-03-06T00:40:43.248Z,0.04
2023-03-06T00:43:10.434Z,0.04
2023-03-06T00:45:38.746Z,0.02
2023-03-06T00:48:05.960Z,0.06
2023-03-06T00:50:34.067Z,0.04
2023-03-06T00:53:01.205Z,0.01
2023-03-06T00:55:29.544Z,0.03
2023-03-06T00:57:56.893Z,0.02
2023-03-06T01:00:24.417Z,0.00
2023-03-06T01:02:53.700Z,0.01
2023-03-06T01:05:22.753Z,0.01
2023-03-06T01:07:50.058Z,-0.03
2023-03-06T01:10:17.486Z,-0.05
2023-03-06T01:12:54.786Z,-0.10
2023-03-06T01:15:22.700Z,-0.06
2023-03-06T01:17:53.736Z,-0.06
2023-03-06T01:20:22.381Z,-0.12
2023-03-06T01:22:49.678Z,-0.13
2023-03-06T01:25:18.266Z,-0.16
2023-03-06T01:27:45.866Z,-0.17
2023-03-06T01:30:13.882Z,-0.17
2023-03-06T01:32:42.669Z,-0.26
2023-03-06T01:35:10.780Z,-0.28
2023-03-06T01:37:40.027Z,-0.25
2023-03-06T01:40:08.929Z,-0.27
2023-03-06T01:42:37.374Z,-0.24
2023-03-06T01:45:13.655Z,-0.30
2023-03-06T01:47:40.770Z,-0.31
2023-03-06T01:50:11.695Z,-0.29
2023-03-06T01:52:48.594Z,-0.38
2023-03-06T01:55:21.222Z,-0.39
2023-03-06T01:57:59.649Z,-0.44
2023-03-06T02:00:29.152Z,-0.42
2023-03-06T02:03:28.475Z,-0.42
2023-03-06T02:05:55.952Z,-0.45
2023-03-06T02:08:24.639Z,-0.47
2023-03-06T02:11:25.686Z,-0.43
2023-03-06T02:13:55.101Z,-0.44
2023-03-06T02:16:26.568Z,-0.41
2023-03-06T02:18:54.301Z,-0.39
2023-03-06T02:21:30.810Z,-0.39
2023-03-06T02:24:04.545Z,-0.36
2023-03-06T02:26:34.600Z,-0.34
2023-03-06T02:29:01.973Z,-0.39
2023-03-06T02:31:31.834Z,-0.39
2023-03-06T02:34:15.256Z,-0.35
2023-03-06T02:36:55.826Z,-0.30
2023-03-06T02:39:28.138Z,-0.29
2023-03-06T02:41:55.284Z,-0.36
2023-03-06T02:44:23.873Z,-0.39
2023-03-06T02:46:50.962Z,-0.33
2023-03-06T02:49:18.115Z,-0.42
2023-03-06T02:51:45.271Z,-0.48
2023-03-06T02:54:18.368Z,-0.42
2023-03-06T02:56:49.495Z,-0.43
2023-03-06T02:59:17.003Z,-0.43
2023-03-06T03:01:45.483Z,-0.49
2023-03-06T03:04:13.527Z,-0.49
2023-03-06T03:06:41.344Z,-0.51
2023-03-06T03:09:09.141Z,-0.53
2023-03-06T03:11:37.938Z,-0.55
2023-03-06T03:14:05.339Z,-0.61
2023-03-06T03:16:39.085Z,-0.65
2023-03-06T03:19:10.385Z,-0.65
2023-03-06T03:21:40.993Z,-0.66
2023-03-06T03:24:08.634Z,-0.68
2023-03-06T03:26:36.394Z,-0.71
2023-03-06T03:29:12.060Z,-0.67
2023-03-06T03:31:40.525Z,-0.71
2023-03-06T03:34:08.775Z,-0.76
2023-03-06T03:36:39.560Z,-0.69
2023-03-06T03:39:09.257Z,-0.69
2023-03-06T03:41:38.026Z,-0.72
2023-03-06T03:44:08.995Z,-0.76
2023-03-06T03:46:36.998Z,-0.77
2023-03-06T03:49:09.774Z,-0.80
2023-03-06T03:51:39.268Z,-0.80
2023-03-06T03:54:07.251Z,-0.82
2023-03-06T03:56:44.527Z,-0.82
2023-03-06T03:59:21.147Z,-0.86
2023-03-06T04:01:59.679Z,-0.91
2023-03-06T04:04:27.739Z,-0.87
2023-03-06T04:06:54.916Z,-0.82
2023-03-06T04:09:22.393Z,-0.66
2023-03-06T04:11:49.624Z,-0.73
2023-03-06T04:14:17.258Z,-0.80
2023-03-06T04:16:44.440Z,-0.74
2023-03-06T04:19:11.837Z,-0.81
2023-03-06T04:21:40.370Z,-0.88
2023-03-06T04:24:09.134Z,-0.79
2023-03-06T04:26:36.918Z,-0.76
2023-03-06T04:29:04.941Z,-0.85
2023-03-06T04:31:32.318Z,-0.82
2023-03-06T04:33:59.449Z,-0.75
2023-03-06T04:36:34.708Z,-0.76
2023-03-06T04:39:08.546Z,-0.73
2023-03-06T04:41:35.727Z,-0.73
2023-03-06T04:44:03.080Z,-0.76
2023-03-06T04:46:30.243Z,-0.71
2023-03-06T04:48:58.382Z,-0.74
2023-03-06T04:51:25.516Z,-0.76
2023-03-06T04:53:52.822Z,-0.74
2023-03-06T04:56:22.080Z,-0.76
2023-03-06T04:58:50.693Z,-0.73
2023-03-06T05:01:18.673Z,-0.71
2023-03-06T05:03:48.291Z,-0.74
2023-03-06T05:06:24.933Z,-0.70
2023-03-06T05:08:52.026Z,-0.70
2023-03-06T05:11:22.746Z,-0.67
2023-03-06T05:13:50.567Z,-0.76
2023-03-06T05:16:18.341Z,-0.82
2023-03-06T05:18:46.343Z,-0.82
2023-03-06T05:21:14.430Z,-0.80
2023-03-06T05:23:42.123Z,-0.83
2023-03-06T05:26:11.771Z,-0.81
2023-03-06T05:28:39.411Z,-0.93
2023-03-06T05:31:07.783Z,-0.96
2023-03-06T05:33:35.836Z,-0.94
2023-03-06T05:36:03.797Z,-0.96
2023-03-06T05:38:32.128Z,-0.96
2023-03-06T05:40:59.484Z,-1.00
2023-03-06T05:43:26.778Z,-1.00
2023-03-06T05:46:04.113Z,-0.98
2023-03-06T05:48:35.751Z,-0.89
2023-03-06T05:51:04.690Z,-0.89
2023-03-06T05:53:34.427Z,-0.85
2023-03-06T05:56:04.569Z,-0.83
2023-03-06T05:58:36.138Z,-0.83
2023-03-06T06:01:16.007Z,-0.84
2023-03-06T06:03:44.527Z,-0.83
2023-03-06T06:06:13.699Z,-0.84
2023-03-06T06:08:41.432Z,-0.80
2023-03-06T06:11:10.180Z,-0.78
2023-03-06T06:13:38.488Z,-0.71
2023-03-06T06:16:15.747Z,-0.70
2023-03-06T06:18:43.976Z,-0.65
2023-03-06T06:21:13.502Z,-0.66
2023-03-06T06:23:41.981Z,-0.63
2023-03-06T06:26:10.375Z,-0.64
2023-03-06T06:28:38.506Z,-0.63
2023-03-06T06:31:14.262Z,-0.57
2023-03-06T06:33:41.681Z,-0.51
2023-03-06T06:36:17.240Z,-0.54
2023-03-06T06:38:44.374Z,-0.51
2023-03-06T06:41:38.997Z,-0.44
2023-03-06T06:43:59.258Z,-0.37
2023-03-06T06:47:10.825Z,-0.24
2023-03-06T06:49:15.246Z,-0.16
2023-03-06T06:51:42.440Z,-0.12
2023-03-06T06:54:10.760Z,-0.03
2023-03-06T06:56:38.167Z,0.11
2023-03-06T06:59:16.069Z,-0.01
2023-03-06T07:01:44.501Z,0.07
2023-03-06T07:04:13.286Z,0.06
2023-03-06T07:06:41.343Z,0.06
2023-03-06T07:09:08.595Z,0.11
2023-03-06T07:11:38.246Z,0.22
2023-03-06T07:14:05.676Z,0.28
2023-03-06T07:16:33.127Z,0.31
2023-03-06T07:19:00.257Z,0.38
2023-03-06T07:21:27.772Z,0.46
2023-03-06T07:23:59.500Z,0.46
2023-03-06T07:26:42.953Z,0.42
2023-03-06T07:29:12.362Z,0.44
2023-03-06T07:31:50.334Z,0.43
2023-03-06T07:34:17.364Z,0.44
2023-03-06T07:36:44.403Z,0.53
2023-03-06T07:39:11.510Z,0.61
2023-03-06T07:41:38.658Z,0.65
2023-03-06T07:44:05.753Z,0.81
2023-03-06T07:46:32.863Z,0.85
2023-03-06T07:48:59.991Z,1.04
2023-03-06T07:51:27.106Z,0.97
2023-03-06T07:53:54.309Z,1.03
2023-03-06T07:56:21.538Z,1.11
2023-03-06T07:58:48.727Z,1.27
2023-03-06T08:01:19.850Z,1.22
2023-03-06T08:03:49.880Z,1.30
2023-03-06T08:06:22.803Z,1.32
2023-03-06T08:08:51.418Z,1.56
2023-03-06T08:11:21.007Z,1.63
2023-03-06T08:13:48.894Z,1.63
2023-03-06T08:16:17.287Z,1.48
2023-03-06T08:18:46.227Z,1.48
2023-03-06T08:21:16.120Z,1.65
2023-03-06T08:23:43.918Z,1.63
2023-03-06T08:26:12.346Z,1.66
2023-03-06T08:28:39.730Z,1.61
2023-03-06T08:31:19.695Z,1.51
2023-03-06T08:33:47.141Z,1.30
2023-03-06T08:36:14.218Z,1.12
2023-03-06T08:38:41.438Z,1.10
2023-03-06T08:41:08.658Z,1.09
2023-03-06T08:43:36.054Z,1.12
2023-03-06T08:46:03.366Z,1.18
2023-03-06T08:48:33.730Z,1.18
2023-03-06T08:51:08.077Z,1.17
2023-03-06T08:53:46.663Z,1.20
2023-03-06T08:56:18.263Z,1.22
2023-03-06T08:58:45.975Z,1.29
2023-03-06T09:01:19.842Z,1.25
2023-03-06T09:03:47.585Z,1.25
2023-03-06T09:06:15.495Z,1.36
2023-03-06T09:08:53.356Z,1.37
2023-03-06T09:11:22.109Z,1.10
2023-03-06T09:13:49.294Z,1.01
2023-03-06T09:16:16.698Z,1.00
2023-03-06T09:18:52.929Z,1.17
2023-03-06T09:21:21.909Z,1.18
2023-03-06T09:23:49.559Z,1.23
2023-03-06T09:26:16.815Z,1.23
2023-03-06T09:28:43.963Z,1.48
2023-03-06T09:31:14.062Z,1.72
2023-03-06T09:33:41.446Z,2.01
2023-03-06T09:36:13.708Z,2.19
2023-03-06T09:38:41.086Z,2.24
2023-03-06T09:41:26.493Z,2.39
2023-03-06T09:44:04.783Z,2.38
2023-03-06T09:47:01.132Z,2.73
2023-03-06T09:50:10.315Z,2.79
2023-03-06T09:52:46.482Z,2.84
2023-03-06T09:55:20.446Z,2.96
2023-03-06T10:01:19.196Z,2.59
2023-03-06T10:04:12.671Z,2.61
2023-03-06T10:06:53.638Z,2.58
2023-03-06T10:09:28.462Z,2.46
2023-03-06T10:12:02.565Z,2.32
2023-03-06T10:14:38.749Z,2.37
2023-03-06T10:17:11.239Z,2.29
2023-03-06T10:19:42.241Z,2.03
2023-03-06T10:22:30.750Z,1.77
2023-03-06T10:25:10.469Z,1.64
2023-03-06T10:27:51.185Z,1.62
2023-03-06T10:30:31.204Z,1.76
2023-03-06T10:33:02.084Z,1.70
2023-03-06T10:35:40.646Z,1.60
2023-03-06T10:38:23.424Z,1.67
2023-03-06T10:41:21.048Z,1.70
2023-03-06T10:44:18.530Z,1.80
2023-03-06T10:46:47.146Z,1.94
2023-03-06T10:49:14.163Z,1.83
2023-03-06T10:51:56.256Z,1.78
2023-03-06T10:54:23.720Z,1.69
2023-03-06T10:56:50.908Z,1.50
2023-03-06T10:59:22.926Z,1.26
2023-03-06T11:01:53.986Z,1.14
2023-03-06T11:04:21.802Z,1.01
2023-03-06T11:06:49.765Z,0.66
2023-03-06T11:09:23.387Z,0.53
2023-03-06T11:11:51.361Z,0.46
2023-03-06T11:14:22.908Z,0.37
2023-03-06T11:16:53.426Z,0.37
2023-03-06T11:19:29.674Z,0.55
2023-03-06T11:22:07.027Z,0.76
2023-03-06T11:24:42.306Z,0.91
2023-03-06T11:27:34.854Z,0.98
2023-03-06T11:30:34.949Z,1.15
2023-03-06T11:33:11.229Z,1.25
2023-03-06T11:35:49.554Z,1.35
2023-03-06T11:38:34.252Z,1.41
2023-03-06T11:41:05.866Z,1.39
2023-03-06T11:44:02.581Z,1.56
2023-03-06T11:46:43.946Z,1.68
2023-03-06T11:49:25.671Z,1.80
2023-03-06T11:51:56.327Z,1.93
2023-03-06T11:54:23.751Z,2.05
2023-03-06T11:57:12.448Z,2.14
2023-03-06T11:59:51.635Z,2.34
2023-03-06T12:02:25.673Z,2.42
2023-03-06T12:05:30.726Z,2.38
2023-03-06T12:08:17.441Z,2.23
2023-03-06T12:10:57.369Z,2.24
2023-03-06T12:14:04.077Z,2.35
2023-03-06T12:16:53.479Z,2.69
2023-03-06T12:19:42.466Z,2.55
2023-03-06T12:22:29.616Z,2.67
2023-03-06T12:25:19.637Z,2.64
2023-03-06T12:28:11.484Z,2.65
2023-03-06T12:31:16.658Z,2.91
2023-03-06T12:34:10.036Z,3.13
2023-03-06T12:36:55.515Z,2.98
2023-03-06T12:39:55.881Z,2.80
2023-03-06T12:42:35.942Z,2.79
2023-03-06T12:45:21.912Z,2.88
2023-03-06T12:48:01.211Z,2.87
2023-03-06T12:50:38.161Z,2.69
2023-03-06T12:53:32.303Z,2.63
2023-03-06T12:56:02.072Z,2.63
2023-03-06T12:58:30.844Z,2.76
2023-03-06T13:01:20.062Z,2.90
2023-03-06T13:04:08.162Z,3.00
2023-03-06T13:06:51.229Z,3.08
2023-03-06T13:09:29.182Z,3.07
2023-03-06T13:11:58.972Z,3.05
2023-03-06T13:14:48.632Z,3.41
2023-03-06T13:17:30.492Z,3.64
2023-03-06T13:20:43.268Z,3.65
2023-03-06T13:23:29.114Z,3.71
2023-03-06T13:26:01.980Z,3.90
2023-03-06T13:28:50.360Z,3.98
2023-03-06T13:31:28.272Z,3.87
2023-03-06T13:34:00.826Z,3.87
2023-03-06T13:36:34.424Z,4.03
2023-03-06T13:39:05.731Z,4.11
2023-03-06T13:41:43.144Z,3.91
2023-03-06T13:44:32.231Z,4.40
2023-03-06T13:47:08.411Z,4.40
2023-03-06T13:49:49.462Z,4.26
2023-03-06T13:52:35.487Z,4.25
2023-03-06T13:55:41.728Z,4.34
2023-03-06T13:58:48.738Z,4.31
2023-03-06T14:01:36.083Z,4.16
2023-03-06T14:05:08.021Z,4.13
2023-03-06T14:07:43.697Z,4.02
2023-03-06T14:10:15.126Z,3.71
2023-03-06T14:12:59.848Z,3.82
2023-03-06T14:15:31.922Z,3.76
2023-03-06T14:18:23.583Z,3.48
2023-03-06T14:20:55.360Z,3.19
2023-03-06T14:23:43.408Z,3.35
2023-03-06T14:26:24.670Z,3.34
2023-03-06T14:28:52.043Z,3.14
2023-03-06T14:31:33.890Z,3.03
2023-03-06T14:34:05.208Z,2.81
2023-03-06T14:36:57.996Z,2.86
2023-03-06T14:39:47.120Z,2.85
2023-03-06T14:42:29.389Z,3.11
2023-03-06T14:45:22.660Z,3.30
2023-03-06T14:47:51.417Z,3.52
2023-03-06T14:50:29.552Z,3.70
2023-03-06T14:53:48.264Z,3.65
2023-03-06T14:56:24.196Z,3.75
2023-03-06T14:58:57.164Z,3.59
2023-03-06T15:01:48.344Z,3.44
2023-03-06T15:04:29.255Z,3.22
2023-03-06T15:06:57.846Z,3.23
2023-03-06T15:09:32.234Z,3.10
2023-03-06T15:12:07.983Z,2.94
2023-03-06T15:14:45.198Z,2.90
2023-03-06T15:17:46.337Z,3.14
2023-03-06T15:20:57.094Z,3.16
2023-03-06T15:23:34.594Z,2.87
2023-03-06T15:26:19.234Z,2.78
2023-03-06T15:29:07.005Z,2.74
2023-03-06T15:31:40.950Z,2.64
2023-03-06T15:34:09.223Z,2.63
2023-03-06T15:36:47.441Z,2.61
2023-03-06T15:39:34.700Z,2.34
2023-03-06T15:42:08.206Z,1.74
2023-03-06T15:44:38.212Z,1.20
2023-03-06T15:47:09.282Z,0.93
2023-03-06T15:49:38.765Z,0.82
2023-03-06T15:52:09.454Z,0.72
2023-03-06T15:54:39.647Z,0.60
2023-03-06T15:57:13.980Z,0.50
2023-03-06T15:59:43.831Z,0.35
2023-03-06T16:02:15.877Z,0.25
2023-03-06T16:04:44.118Z,-0.01
2023-03-06T16:07:12.209Z,-0.24
2023-03-06T16:09:40.720Z,-0.44
2023-03-06T16:12:15.111Z,-0.52
2023-03-06T16:14:42.416Z,-0.63
2023-03-06T16:17:12.306Z,-0.66
2023-03-06T16:19:42.642Z,-0.67
2023-03-06T16:22:10.297Z,-0.69
2023-03-06T16:24:37.628Z,-0.71
2023-03-06T16:27:07.956Z,-0.73
2023-03-06T16:29:35.630Z,-0.72
2023-03-06T16:32:12.568Z,-0.72
2023-03-06T16:34:42.298Z,-0.69
2023-03-06T16:37:16.068Z,-0.67
2023-03-06T16:39:45.803Z,-0.63
2023-03-06T16:42:13.039Z,-0.58
2023-03-06T16:44:45.882Z,-0.59
2023-03-06T16:47:18.741Z,-0.57
2023-03-06T16:49:46.128Z,-0.58
2023-03-06T16:52:14.622Z,-0.58
2023-03-06T16:54:44.533Z,-0.57
2023-03-06T16:57:17.470Z,-0.54
2023-03-06T16:59:50.493Z,-0.55
2023-03-06T17:02:17.650Z,-0.53
2023-03-06T17:04:44.980Z,-0.53
2023-03-06T17:07:13.020Z,-0.51
2023-03-06T17:09:40.077Z,-0.51
2023-03-06T17:12:10.188Z,-0.50
2023-03-06T17:14:40.892Z,-0.48
2023-03-06T17:17:08.046Z,-0.47
2023-03-06T17:19:35.277Z,-0.45
2023-03-06T17:22:05.078Z,-0.44
2023-03-06T17:24:35.415Z,-0.41
2023-03-06T17:27:02.550Z,-0.40
2023-03-06T17:29:32.059Z,-0.38
2023-03-06T17:32:00.029Z,-0.39
2023-03-06T17:34:27.824Z,-0.35
2023-03-06T17:36:58.048Z,-0.35
2023-03-06T17:39:25.104Z,-0.35
2023-03-06T17:41:56.665Z,-0.33
2023-03-06T17:44:34.430Z,-0.32
2023-03-06T17:47:02.901Z,-0.32
2023-03-06T17:49:32.439Z,-0.30
2023-03-06T17:52:07.086Z,-0.27
2023-03-06T17:54:34.574Z,-0.27
2023-03-06T17:57:03.709Z,-0.23
2023-03-06T17:59:34.419Z,-0.22
2023-03-06T18:02:02.652Z,-0.24
2023-03-06T18:04:38.945Z,-0.23
2023-03-06T18:07:13.663Z,-0.25
2023-03-06T18:09:50.266Z,-0.24
2023-03-06T18:12:20.081Z,-0.18
2023-03-06T18:14:48.731Z,-0.17
2023-03-06T18:17:16.692Z,-0.17
2023-03-06T18:19:49.609Z,-0.18
2023-03-06T18:22:28.335Z,-0.22
2023-03-06T18:24:58.528Z,-0.24
2023-03-06T18:27:27.377Z,-0.28
2023-03-06T18:29:55.786Z,-0.29
2023-03-06T18:32:23.236Z,-0.31
2023-03-06T18:34:55.281Z,-0.31
2023-03-06T18:37:24.686Z,-0.30
2023-03-06T18:40:15.634Z,-0.30
2023-03-06T18:42:45.907Z,-0.30
2023-03-06T18:45:16.493Z,-0.29
2023-03-06T18:47:43.836Z,-0.31
2023-03-06T18:50:16.499Z,-0.31
2023-03-06T18:52:44.472Z,-0.29
2023-03-06T18:55:15.613Z,-0.31
2023-03-06T18:57:42.861Z,-0.32
2023-03-06T19:00:10.799Z,-0.32
2023-03-06T19:02:37.998Z,-0.33
2023-03-06T19:05:05.498Z,-0.36
2023-03-06T19:07:32.768Z,-0.38
2023-03-06T19:09:59.848Z,-0.40
2023-03-06T19:12:27.100Z,-0.39
2023-03-06T19:14:54.329Z,-0.37
2023-03-06T19:17:24.882Z,-0.39
2023-03-06T19:19:53.264Z,-0.41
2023-03-06T19:22:20.692Z,-0.40
2023-03-06T19:24:50.181Z,-0.43
2023-03-06T19:27:17.512Z,-0.44
2023-03-06T19:29:44.705Z,-0.47
2023-03-06T19:32:11.960Z,-0.47
2023-03-06T19:34:40.082Z,-0.46
2023-03-06T19:37:08.479Z,-0.48
2023-03-06T19:39:35.648Z,-0.47
2023-03-06T19:42:04.667Z,-0.48
2023-03-06T19:44:31.933Z,-0.51
2023-03-06T19:46:59.164Z,-0.46
2023-03-06T19:49:26.644Z,-0.45
2023-03-06T19:51:56.019Z,-0.45
2023-03-06T19:54:26.855Z,-0.46
2023-03-06T19:56:54.224Z,-0.43
2023-03-06T19:59:21.606Z,-0.40
2023-03-06T20:01:49.087Z,-0.38
2023-03-06T20:04:17.054Z,-0.39
2023-03-06T20:06:46.678Z,-0.39
2023-03-06T20:09:14.120Z,-0.42
2023-03-06T20:11:41.371Z,-0.38
2023-03-06T20:14:10.454Z,-0.41
2023-03-06T20:16:38.172Z,-0.39
2023-03-06T20:19:06.157Z,-0.40
2023-03-06T20:21:37.664Z,-0.41
2023-03-06T20:24:07.110Z,-0.50
2023-03-06T20:26:36.694Z,-0.49
2023-03-06T20:29:03.930Z,-0.54
2023-03-06T20:31:31.192Z,-0.51
2023-03-06T20:33:59.470Z,-0.52
2023-03-06T20:36:30.676Z,-0.53
2023-03-06T20:39:01.897Z,-0.51
2023-03-06T20:41:31.077Z,-0.50
2023-03-06T20:44:00.414Z,-0.46
2023-03-06T20:46:29.878Z,-0.39
2023-03-06T20:48:58.286Z,-0.36
2023-03-06T20:51:31.793Z,-0.39
2023-03-06T20:54:10.086Z,-0.38
2023-03-06T20:56:39.579Z,-0.40
2023-03-06T20:59:11.982Z,-0.38
2023-03-06T21:01:43.105Z,-0.29
2023-03-06T21:04:20.425Z,-0.26
2023-03-06T21:06:47.656Z,-0.28
2023-03-06T21:09:25.943Z,-0.20
2023-03-06T21:11:53.041Z,-0.16
2023-03-06T21:14:20.231Z,-0.19
2023-03-06T21:16:47.463Z,-0.11
2023-03-06T21:19:17.236Z,-0.11
2023-03-06T21:21:44.297Z,-0.09
2023-03-06T21:24:11.429Z,-0.10
2023-03-06T21:26:40.964Z,-0.18
2023-03-06T21:29:09.150Z,-0.22
2023-03-06T21:31:36.924Z,-0.33
2023-03-06T21:34:05.260Z,-0.23
2023-03-06T21:36:35.812Z,-0.24
2023-03-06T21:39:06.457Z,-0.39
2023-03-06T21:41:34.137Z,-0.38
2023-03-06T21:44:04.497Z,-0.45
2023-03-06T21:46:32.508Z,-0.39
2023-03-06T21:49:01.674Z,-0.48
2023-03-06T21:51:29.008Z,-0.53
2023-03-06T21:53:56.317Z,-0.59
2023-03-06T21:56:25.403Z,-0.60
2023-03-06T21:58:52.980Z,-0.63
2023-03-06T22:01:26.790Z,-0.54
2023-03-06T22:03:54.463Z,-0.67
2023-03-06T22:06:27.784Z,-0.65
2023-03-06T22:08:56.686Z,-0.73
2023-03-06T22:11:25.514Z,-0.71
2023-03-06T22:13:55.743Z,-0.67
2023-03-06T22:16:22.930Z,-0.71
2023-03-06T22:18:51.573Z,-0.72
2023-03-06T22:21:22.250Z,-0.76
2023-03-06T22:23:51.507Z,-0.72
2023-03-06T22:26:22.592Z,-0.86
2023-03-06T22:28:51.342Z,-0.86
2023-03-06T22:31:25.161Z,-0.79
2023-03-06T22:33:54.025Z,-0.88
2023-03-06T22:36:25.251Z,-0.91
2023-03-06T22:39:09.131Z,-0.87
2023-03-06T22:41:39.893Z,-0.88
2023-03-06T22:44:07.264Z,-0.97
2023-03-06T22:46:34.527Z,-0.89
2023-03-06T22:49:02.309Z,-0.97
2023-03-06T22:51:29.729Z,-0.91
2023-03-06T22:53:57.068Z,-0.99
2023-03-06T22:56:27.677Z,-0.96
2023-03-06T22:58:57.790Z,-0.78
2023-03-06T23:01:28.048Z,-0.72
2023-03-06T23:04:11.026Z,-0.65
2023-03-06T23:06:46.364Z,-0.70
2023-03-06T23:09:23.197Z,-0.70
2023-03-06T23:12:12.092Z,-0.72
2023-03-06T23:15:00.058Z,-0.67
2023-03-06T23:17:54.581Z,-0.54
2023-03-06T23:20:47.155Z,-0.43
2023-03-06T23:23:37.175Z,-0.42
2023-03-06T23:26:10.933Z,-0.45
2023-03-06T23:28:38.991Z,-0.43
2023-03-06T23:31:19.023Z,-0.40
2023-03-06T23:33:46.347Z,-0.48
2023-03-06T23:36:18.214Z,-0.49
2023-03-06T23:38:45.802Z,-0.59
2023-03-06T23:41:15.716Z,-0.65
2023-03-06T23:43:43.235Z,-0.68
2023-03-06T23:46:13.502Z,-0.69
2023-03-06T23:48:42.327Z,-0.71
2023-03-06T23:51:22.925Z,-0.69
2023-03-06T23:54:00.638Z,-0.58
2023-03-06T23:56:28.493Z,-0.60
2023-03-06T23:59:08.539Z,-0.64
